Terminal Aerodrome Forecast
Issued by NWS

Home | Current Version | Previous Version | Graphics & Text | Print | Product List | Glossary On
Versions: 1 2 3 4 5 6 7 8 9 10 11 12 13 14
000
FTUS43 KICT 191700
TAFHUT
TAF
KHUT 191735Z 1918/2018 20011KT P6SM OVC060
     FM192000 18012KT P6SM SCT050
     FM200100 16009KT P6SM SCT250
     FM200900 17008KT P6SM SCT015=

USA.gov is the U.S. government's official web portal to all federal, state and local government web resources and services.